Time;durP1;ratioP1;P1;durP2;ratioP2;P2;SDS_P1;SDS_P2;PMS_P1;PMS_P2;Temp;Humidity;BMP_temperature;BMP_pressure;BME280_temperature;BME280_humidity;BME280_pressure;Samples;Min_cycle;Max_cycle;Signal;HPM_P1;HPM_P2
2022/05/30 00:00:50;;;;;;;2.67;2.47;;;18.80;53.50;;;;;;6219546;23;20460;-86
2022/05/30 00:03:17;;;;;;;2.65;2.45;;;18.80;53.50;;;;;;6194295;23;20181;-87
2022/05/30 00:05:46;;;;;;;2.65;2.45;;;18.80;53.60;;;;;;6220033;23;20125;-87
2022/05/30 00:08:12;;;;;;;2.75;2.50;;;18.80;53.60;;;;;;6170333;23;20229;-87
2022/05/30 00:10:38;;;;;;;2.97;2.67;;;18.80;53.60;;;;;;6194401;23;20130;-87
2022/05/30 00:13:06;;;;;;;2.92;2.50;;;18.70;53.50;;;;;;6194446;23;20147;-87
2022/05/30 00:15:32;;;;;;;3.10;2.80;;;18.80;53.60;;;;;;6194447;23;20153;-87
2022/05/30 00:17:58;;;;;;;3.40;2.60;;;18.80;53.70;;;;;;6220121;23;20133;-87
2022/05/30 00:20:24;;;;;;;2.80;2.55;;;18.80;53.60;;;;;;6196075;23;20442;-87
2022/05/30 00:22:50;;;;;;;2.80;2.50;;;18.80;53.60;;;;;;6196135;23;20169;-88
2022/05/30 00:25:17;;;;;;;2.92;2.63;;;18.70;53.60;;;;;;6172686;23;20152;-87
2022/05/30 00:27:43;;;;;;;2.55;2.35;;;18.80;53.70;;;;;;6171256;23;20137;-86
2022/05/30 00:30:09;;;;;;;3.13;2.38;;;18.80;53.80;;;;;;6171232;23;20146;-87
2022/05/30 00:32:35;;;;;;;3.10;2.80;;;18.80;53.70;;;;;;6171143;23;20148;-87
2022/05/30 00:35:01;;;;;;;3.15;2.72;;;18.80;53.70;;;;;;6221041;23;20217;-87
2022/05/30 00:37:28;;;;;;;3.90;2.80;;;18.80;53.80;;;;;;6196328;23;20208;-86
2022/05/30 00:39:54;;;;;;;3.03;2.72;;;18.80;53.80;;;;;;6217467;23;20193;-86
2022/05/30 00:42:21;;;;;;;3.08;2.83;;;18.80;53.80;;;;;;6166696;23;20188;-87
2022/05/30 00:44:48;;;;;;;2.72;2.53;;;18.80;53.90;;;;;;6191544;23;20177;-87
2022/05/30 00:47:17;;;;;;;2.92;2.60;;;18.70;53.70;;;;;;6191036;23;20562;-86
2022/05/30 00:49:45;;;;;;;3.00;2.63;;;18.70;53.80;;;;;;6166510;23;20135;-87
2022/05/30 00:52:19;;;;;;;2.92;2.50;;;18.80;53.90;;;;;;6166240;23;20146;-88
2022/05/30 00:54:51;;;;;;;3.08;2.60;;;18.70;53.80;;;;;;6190828;23;20131;-87
2022/05/30 00:57:23;;;;;;;3.25;2.40;;;18.70;53.80;;;;;;6165968;23;20489;-86
2022/05/30 00:59:53;;;;;;;2.72;2.53;;;18.70;53.80;;;;;;6167255;23;20161;-87
2022/05/30 01:02:21;;;;;;;2.80;2.60;;;18.70;53.80;;;;;;6165846;23;20174;-86
2022/05/30 01:07:32;;;;;;;2.58;2.38;;;18.70;53.80;;;;;;6194371;23;20139;-88
2022/05/30 01:09:58;;;;;;;2.95;2.65;;;18.70;53.70;;;;;;6190940;23;20123;-87
2022/05/30 01:12:34;;;;;;;2.92;2.53;;;18.70;53.80;;;;;;6190942;23;20153;-86
2022/05/30 01:15:00;;;;;;;3.00;2.65;;;18.70;53.80;;;;;;6190838;23;20149;-87
2022/05/30 01:17:26;;;;;;;3.10;2.80;;;18.70;53.90;;;;;;6191142;23;20176;-86
2022/05/30 01:19:55;;;;;;;2.72;2.50;;;18.70;53.90;;;;;;6217238;23;20217;-87
2022/05/30 01:22:56;;;;;;;3.13;2.67;;;18.70;53.90;;;;;;6165881;23;20169;-87
2022/05/30 01:25:43;;;;;;;3.17;2.88;;;18.70;54.00;;;;;;6195095;23;20135;-87
2022/05/30 01:28:23;;;;;;;2.70;2.50;;;18.70;53.90;;;;;;6165619;23;20192;-88
2022/05/30 01:30:51;;;;;;;2.80;2.60;;;18.70;54.00;;;;;;6166079;23;20465;-88
2022/05/30 01:33:17;;;;;;;3.00;2.70;;;18.70;54.10;;;;;;6216842;23;20162;-87
2022/05/30 01:35:42;;;;;;;2.50;2.25;;;18.70;54.00;;;;;;6190593;23;20473;-87
2022/05/30 01:38:08;;;;;;;2.75;2.47;;;18.70;54.00;;;;;;6193352;23;20193;-86
2022/05/30 01:40:34;;;;;;;2.65;2.45;;;18.70;54.00;;;;;;6195394;23;20224;-86
2022/05/30 01:43:00;;;;;;;3.78;2.67;;;18.70;54.10;;;;;;6220419;23;20207;-86
2022/05/30 01:45:26;;;;;;;3.25;2.60;;;18.70;54.10;;;;;;6195103;23;20136;-87
2022/05/30 01:47:53;;;;;;;2.70;2.50;;;18.70;54.10;;;;;;6170329;23;20142;-87
2022/05/30 01:50:19;;;;;;;2.60;2.28;;;18.70;54.00;;;;;;6171191;23;20443;-86
2022/05/30 01:52:46;;;;;;;3.60;2.80;;;18.70;54.10;;;;;;6195064;23;20145;-87
2022/05/30 01:55:11;;;;;;;2.80;2.60;;;18.70;54.10;;;;;;6170499;23;20492;-87
2022/05/30 01:57:38;;;;;;;2.90;2.60;;;18.70;54.20;;;;;;6220297;23;20136;-87
2022/05/30 02:00:06;;;;;;;3.17;2.60;;;18.70;54.10;;;;;;6170803;23;20138;-87
2022/05/30 02:02:33;;;;;;;2.97;2.67;;;18.70;54.20;;;;;;6195386;23;20203;-87
2022/05/30 02:04:59;;;;;;;3.30;2.65;;;18.70;54.20;;;;;;6220378;23;20561;-86
2022/05/30 02:07:25;;;;;;;3.05;2.75;;;18.70;54.20;;;;;;6220148;23;20138;-87
2022/05/30 02:09:50;;;;;;;2.65;2.45;;;18.70;54.20;;;;;;6220448;23;20130;-86
2022/05/30 02:12:16;;;;;;;3.35;2.67;;;18.60;54.30;;;;;;6220214;23;20126;-87
2022/05/30 02:14:44;;;;;;;2.83;2.63;;;18.60;54.30;;;;;;6220297;23;20134;-87
2022/05/30 02:17:10;;;;;;;2.83;2.40;;;18.60;54.20;;;;;;6195526;23;20220;-87
2022/05/30 02:19:37;;;;;;;3.13;2.55;;;18.60;54.20;;;;;;6195363;23;20129;-87
2022/05/30 02:22:04;;;;;;;4.53;2.75;;;18.70;54.40;;;;;;6195407;23;20156;-87
2022/05/30 02:24:29;;;;;;;2.67;2.47;;;18.70;54.30;;;;;;6170190;23;20145;-87
2022/05/30 02:26:56;;;;;;;2.90;2.70;;;18.60;54.20;;;;;;6220605;23;20495;-88
2022/05/30 02:29:22;;;;;;;3.05;2.70;;;18.60;54.30;;;;;;6170117;23;20173;-87
2022/05/30 02:31:47;;;;;;;2.40;2.20;;;18.60;54.30;;;;;;6220317;23;20442;-88
2022/05/30 02:36:56;;;;;;;3.10;2.67;;;18.60;54.20;;;;;;6246870;23;20172;-86
2022/05/30 02:39:24;;;;;;;2.72;2.53;;;18.60;54.30;;;;;;6171461;23;20220;-88
2022/05/30 02:41:50;;;;;;;3.33;2.53;;;18.60;54.30;;;;;;6165143;23;20209;-87
2022/05/30 02:44:19;;;;;;;3.35;2.30;;;18.70;54.30;;;;;;6165395;23;20162;-87
2022/05/30 02:46:47;;;;;;;2.90;2.60;;;18.60;54.30;;;;;;6165243;23;20169;-87
2022/05/30 02:49:13;;;;;;;2.90;2.60;;;18.60;54.40;;;;;;6165521;23;20566;-87
2022/05/30 02:51:38;;;;;;;2.70;2.50;;;18.60;54.30;;;;;;6141316;23;20145;-87
2022/05/30 02:54:05;;;;;;;2.83;2.63;;;18.60;54.30;;;;;;6165772;23;20196;-87
2022/05/30 02:56:31;;;;;;;2.90;2.50;;;18.60;54.40;;;;;;6141182;23;20145;-87
2022/05/30 02:58:58;;;;;;;2.63;2.42;;;18.70;54.50;;;;;;6190574;23;20127;-88
2022/05/30 03:01:24;;;;;;;2.80;2.60;;;18.60;54.40;;;;;;6141197;23;20142;-87
2022/05/30 03:03:50;;;;;;;2.60;2.40;;;18.60;55.10;;;;;;6166098;23;20170;-87
2022/05/30 03:06:16;;;;;;;2.80;2.50;;;18.60;54.50;;;;;;6166000;23;20138;-87
2022/05/30 03:08:42;;;;;;;2.72;2.50;;;18.60;54.40;;;;;;6142264;23;20142;-87
2022/05/30 03:11:10;;;;;;;2.95;2.65;;;18.60;54.50;;;;;;6166573;23;20162;-87
2022/05/30 03:13:37;;;;;;;2.80;2.60;;;18.50;54.50;;;;;;6142801;23;20153;-87
2022/05/30 03:16:03;;;;;;;2.83;2.58;;;18.60;54.50;;;;;;6143014;23;20150;-87
2022/05/30 03:18:29;;;;;;;3.00;2.70;;;18.60;54.50;;;;;;6166230;23;20126;-87
2022/05/30 03:20:55;;;;;;;2.63;2.40;;;18.60;54.40;;;;;;6167019;23;20209;-87
2022/05/30 03:23:21;;;;;;;2.75;2.30;;;18.60;54.50;;;;;;6167085;23;20170;-87
2022/05/30 03:25:48;;;;;;;3.90;2.65;;;18.60;54.40;;;;;;6166642;23;20146;-87
2022/05/30 03:28:14;;;;;;;4.00;2.40;;;18.60;54.50;;;;;;6191879;23;20130;-87
2022/05/30 03:30:39;;;;;;;2.67;2.45;;;18.60;54.40;;;;;;6191217;23;20171;-87
2022/05/30 03:33:05;;;;;;;2.88;2.58;;;18.60;54.40;;;;;;6166737;23;20138;-86
2022/05/30 03:35:33;;;;;;;3.25;2.55;;;18.60;54.40;;;;;;6165741;23;20134;-86
2022/05/30 03:37:59;;;;;;;2.67;2.42;;;18.60;54.40;;;;;;6166376;23;20189;-86
2022/05/30 03:40:26;;;;;;;2.70;2.50;;;18.60;54.40;;;;;;6190299;23;20584;-86
2022/05/30 03:42:52;;;;;;;2.50;2.30;;;18.60;54.40;;;;;;6164957;23;20176;-88
2022/05/30 03:45:18;;;;;;;2.60;2.40;;;18.60;54.40;;;;;;6215019;23;20138;-87
2022/05/30 03:47:45;;;;;;;2.80;2.60;;;18.60;54.50;;;;;;6214948;23;20554;-86
2022/05/30 03:50:18;;;;;;;3.40;2.67;;;18.70;54.40;;;;;;6191038;23;20148;-87
2022/05/30 03:52:46;;;;;;;2.75;2.50;;;18.70;54.40;;;;;;6215773;23;20138;-87
2022/05/30 03:55:15;;;;;;;2.50;2.30;;;18.70;54.40;;;;;;6219169;23;20784;-87
2022/05/30 03:57:41;;;;;;;2.90;2.60;;;18.70;54.30;;;;;;6192189;23;20172;-87
2022/05/30 04:00:09;;;;;;;2.80;2.60;;;18.70;54.30;;;;;;6217378;23;20137;-86
2022/05/30 04:02:34;;;;;;;2.42;2.22;;;18.70;54.40;;;;;;6217176;23;20635;-86
2022/05/30 04:05:02;;;;;;;2.90;2.60;;;18.70;54.20;;;;;;6217361;23;20127;-87
2022/05/30 04:07:28;;;;;;;2.55;2.35;;;18.70;54.30;;;;;;6192017;23;20138;-88
2022/05/30 04:09:54;;;;;;;2.50;2.30;;;18.70;54.30;;;;;;6192727;23;20222;-87
2022/05/30 04:12:20;;;;;;;3.00;2.70;;;18.70;54.30;;;;;;6191879;23;20134;-87
2022/05/30 04:14:52;;;;;;;2.42;2.22;;;18.70;54.30;;;;;;6192180;23;20209;-86
2022/05/30 04:17:18;;;;;;;2.78;2.50;;;18.70;54.20;;;;;;6167120;23;20222;-86
2022/05/30 04:19:45;;;;;;;2.85;2.33;;;18.80;54.20;;;;;;6167586;23;20134;-87
2022/05/30 04:22:12;;;;;;;2.70;2.50;;;18.70;54.20;;;;;;6191686;23;20134;-87
2022/05/30 04:24:38;;;;;;;3.05;2.30;;;18.80;54.20;;;;;;6191912;23;20641;-88
2022/05/30 04:27:05;;;;;;;2.67;2.40;;;18.80;54.10;;;;;;6191342;23;20629;-87
2022/05/30 04:29:31;;;;;;;2.97;2.50;;;18.80;54.10;;;;;;6192091;23;20193;-87
2022/05/30 04:31:57;;;;;;;2.60;2.40;;;18.70;54.10;;;;;;6217029;23;20138;-86
2022/05/30 04:34:23;;;;;;;2.85;2.47;;;18.80;54.10;;;;;;6217371;23;20138;-87
2022/05/30 04:36:49;;;;;;;2.53;2.33;;;18.80;54.10;;;;;;6217662;23;20197;-87
2022/05/30 04:39:16;;;;;;;2.60;2.40;;;18.80;54.10;;;;;;6166943;23;20189;-87
2022/05/30 04:41:43;;;;;;;2.60;2.40;;;18.80;54.10;;;;;;6192271;23;20145;-87
2022/05/30 04:44:10;;;;;;;3.00;2.70;;;18.80;54.00;;;;;;6192141;23;20177;-88
2022/05/30 04:46:37;;;;;;;2.40;2.20;;;18.90;54.10;;;;;;6192527;23;20158;-86
2022/05/30 04:49:03;;;;;;;3.05;2.47;;;18.80;53.90;;;;;;6192436;23;20233;-87
2022/05/30 04:51:30;;;;;;;3.15;2.85;;;18.90;53.90;;;;;;6167303;23;20150;-87
2022/05/30 04:53:56;;;;;;;2.63;2.42;;;18.90;53.80;;;;;;6192080;23;20150;-86
2022/05/30 04:56:24;;;;;;;2.38;2.17;;;18.90;53.70;;;;;;6216133;23;20138;-86
2022/05/30 04:58:50;;;;;;;2.65;2.45;;;18.90;53.80;;;;;;6191373;23;20221;-86
2022/05/30 05:01:15;;;;;;;2.75;2.47;;;18.90;53.80;;;;;;6191558;23;20181;-88
2022/05/30 05:03:43;;;;;;;2.55;2.35;;;18.90;53.90;;;;;;6191050;23;20169;-87
2022/05/30 05:06:12;;;;;;;2.60;2.33;;;18.90;53.90;;;;;;6192034;23;20169;-87
2022/05/30 05:08:55;;;;;;;2.65;2.40;;;18.80;54.00;;;;;;6166803;23;20146;-86
2022/05/30 05:11:24;;;;;;;2.50;2.30;;;18.80;54.00;;;;;;6170034;23;20173;-87
2022/05/30 05:13:51;;;;;;;2.40;2.20;;;18.90;54.10;;;;;;6191772;23;20142;-87
2022/05/30 05:16:21;;;;;;;2.67;2.47;;;18.90;54.10;;;;;;6167447;23;20184;-88
2022/05/30 05:18:48;;;;;;;2.30;2.10;;;18.80;53.90;;;;;;6193168;23;20149;-86
2022/05/30 05:21:19;;;;;;;2.50;2.30;;;18.90;54.10;;;;;;6216791;23;20233;-87
2022/05/30 05:23:45;;;;;;;2.65;2.45;;;18.90;54.10;;;;;;6192378;23;20241;-86
2022/05/30 05:26:11;;;;;;;2.83;2.63;;;18.80;54.10;;;;;;6192417;23;20571;-87
2022/05/30 05:28:38;;;;;;;2.58;2.33;;;18.80;54.20;;;;;;6167342;23;20224;-87
2022/05/30 05:31:06;;;;;;;2.60;2.40;;;18.80;54.30;;;;;;6192430;23;20153;-86
2022/05/30 05:33:31;;;;;;;2.47;2.28;;;18.80;54.20;;;;;;6167213;23;20165;-86
2022/05/30 05:35:59;;;;;;;2.80;2.60;;;18.80;54.80;;;;;;6166711;23;20521;-86
2022/05/30 05:38:25;;;;;;;2.50;2.22;;;18.80;54.20;;;;;;6203859;23;20220;-87
2022/05/30 05:40:52;;;;;;;2.35;2.15;;;18.80;54.20;;;;;;6195976;23;20161;-85
2022/05/30 05:43:18;;;;;;;2.35;2.15;;;18.80;54.10;;;;;;6196304;23;20208;-86
2022/05/30 05:45:46;;;;;;;2.25;2.05;;;18.80;54.20;;;;;;6173787;23;20141;-86
2022/05/30 05:48:15;;;;;;;2.47;2.28;;;18.80;54.20;;;;;;6184557;23;20205;-86
2022/05/30 05:50:48;;;;;;;2.03;1.83;;;18.80;54.10;;;;;;6183766;23;20152;-87
2022/05/30 05:53:16;;;;;;;2.67;2.22;;;18.90;54.10;;;;;;6207978;23;20141;-86
2022/05/30 05:55:42;;;;;;;2.53;2.33;;;18.90;54.20;;;;;;6182478;23;20145;-85
2022/05/30 05:58:08;;;;;;;2.30;2.10;;;18.90;54.10;;;;;;6207398;23;20129;-86
2022/05/30 06:00:34;;;;;;;2.33;2.13;;;18.80;54.10;;;;;;6208322;23;20469;-86
2022/05/30 06:03:00;;;;;;;2.85;2.50;;;18.80;54.10;;;;;;6206994;23;20169;-87
2022/05/30 06:05:30;;;;;;;2.50;2.30;;;18.80;54.10;;;;;;6207098;23;20129;-87
2022/05/30 06:08:00;;;;;;;2.30;2.10;;;18.80;54.10;;;;;;6184079;23;20146;-86
2022/05/30 06:10:26;;;;;;;2.40;2.20;;;18.80;54.30;;;;;;6183107;23;20134;-86
2022/05/30 06:12:53;;;;;;;2.50;2.30;;;18.80;54.30;;;;;;6207519;23;20507;-85
2022/05/30 06:15:19;;;;;;;2.90;2.20;;;18.80;54.20;;;;;;6232061;23;20157;-85
2022/05/30 06:17:45;;;;;;;2.85;2.50;;;18.80;54.20;;;;;;6207404;23;20126;-86
2022/05/30 06:20:16;;;;;;;2.75;2.10;;;18.90;54.10;;;;;;6182784;23;20137;-85
2022/05/30 06:22:41;;;;;;;2.40;2.20;;;18.80;54.10;;;;;;6233567;23;20168;-86
2022/05/30 06:25:08;;;;;;;2.30;2.10;;;18.80;54.20;;;;;;6182425;23;20165;-85
2022/05/30 06:27:34;;;;;;;2.42;2.22;;;18.80;54.20;;;;;;6181135;23;20142;-85
2022/05/30 06:30:01;;;;;;;2.50;2.30;;;18.80;54.20;;;;;;6205812;23;20649;-86
2022/05/30 06:32:27;;;;;;;2.30;2.10;;;18.80;54.40;;;;;;6200634;23;20250;-85
2022/05/30 06:34:54;;;;;;;2.33;2.13;;;18.70;54.40;;;;;;6227812;23;20197;-86
2022/05/30 06:37:21;;;;;;;2.20;2.00;;;18.70;54.30;;;;;;6200220;23;20200;-86
2022/05/30 06:39:51;;;;;;;2.75;2.47;;;18.80;54.30;;;;;;6173641;23;20197;-86
2022/05/30 06:42:16;;;;;;;2.25;2.05;;;18.70;54.40;;;;;;6143297;23;20154;-87
2022/05/30 06:44:42;;;;;;;2.90;2.10;;;18.80;54.40;;;;;;6191961;23;20166;-86
2022/05/30 06:47:08;;;;;;;2.25;1.98;;;18.70;54.20;;;;;;6142310;23;20185;-87
2022/05/30 06:49:33;;;;;;;2.28;2.08;;;18.70;54.40;;;;;;6172972;23;20138;-85
2022/05/30 06:51:59;;;;;;;2.08;1.88;;;18.70;54.20;;;;;;6199549;23;20127;-86
2022/05/30 06:54:25;;;;;;;2.95;2.40;;;18.70;54.30;;;;;;6171486;23;20162;-85
2022/05/30 07:02:40;;;;;;;2.42;2.17;;;18.70;54.40;;;;;;6178009;23;20211;-85
2022/05/30 07:05:10;;;;;;;4.93;2.00;;;18.70;54.40;;;;;;6147430;23;20554;-84
2022/05/30 07:07:35;;;;;;;2.45;2.25;;;18.80;54.20;;;;;;6171740;23;20207;-85
2022/05/30 07:10:15;;;;;;;2.88;2.20;;;18.80;54.20;;;;;;6140151;23;20617;-87
2022/05/30 07:12:44;;;;;;;3.92;2.10;;;18.80;54.30;;;;;;6186353;23;20158;-86
2022/05/30 07:15:10;;;;;;;2.42;2.15;;;18.80;54.40;;;;;;6161319;23;20141;-86
2022/05/30 07:17:36;;;;;;;2.78;2.10;;;18.80;54.60;;;;;;6159853;23;20218;-85
2022/05/30 07:20:03;;;;;;;3.95;2.20;;;18.70;54.50;;;;;;6158604;23;20143;-86
2022/05/30 07:22:29;;;;;;;2.85;2.17;;;18.70;54.70;;;;;;6161595;23;20174;-86
2022/05/30 07:25:02;;;;;;;3.17;2.08;;;18.70;54.90;;;;;;6137892;23;20146;-85
2022/05/30 07:27:28;;;;;;;4.40;2.38;;;18.70;54.80;;;;;;6163184;23;20571;-87
2022/05/30 07:29:54;;;;;;;2.45;2.00;;;18.70;54.70;;;;;;6162744;23;20226;-86
2022/05/30 07:32:21;;;;;;;3.55;2.20;;;18.80;54.60;;;;;;6162659;23;20243;-86
2022/05/30 07:34:47;;;;;;;2.22;2.03;;;18.80;54.60;;;;;;6163811;23;20139;-86
2022/05/30 07:37:15;;;;;;;3.65;2.15;;;18.80;54.50;;;;;;6162878;23;20210;-86
2022/05/30 07:39:55;;;;;;;2.65;2.10;;;18.80;54.40;;;;;;6138251;23;20198;-86
2022/05/30 07:42:23;;;;;;;4.57;2.35;;;18.80;54.40;;;;;;6109547;23;20186;-85
2022/05/30 07:44:51;;;;;;;7.15;2.35;;;18.80;54.40;;;;;;6129898;23;20178;-88
2022/05/30 07:47:18;;;;;;;3.25;2.00;;;18.80;54.60;;;;;;6109431;23;20151;-87
2022/05/30 07:49:44;;;;;;;2.38;2.00;;;18.80;54.40;;;;;;6133548;23;20143;-86
2022/05/30 07:52:10;;;;;;;2.25;2.00;;;18.80;54.30;;;;;;6133845;23;20147;-88
2022/05/30 07:54:43;;;;;;;2.45;1.90;;;18.80;54.10;;;;;;6134482;23;20155;-87
2022/05/30 07:57:10;;;;;;;2.03;1.83;;;18.80;54.40;;;;;;6155511;23;20131;-86
2022/05/30 07:59:36;;;;;;;3.13;2.00;;;18.80;54.40;;;;;;6131909;23;20156;-88
2022/05/30 08:02:03;;;;;;;2.60;2.20;;;18.80;54.40;;;;;;6133827;23;20178;-87
2022/05/30 08:04:30;;;;;;;3.00;2.00;;;18.80;54.20;;;;;;6136812;23;20147;-87
2022/05/30 08:06:55;;;;;;;2.35;1.90;;;18.80;54.20;;;;;;6152370;23;20223;-87
2022/05/30 08:09:21;;;;;;;6.13;2.15;;;18.90;53.90;;;;;;6137535;23;20150;-89
2022/05/30 08:11:50;;;;;;;3.53;1.98;;;18.90;54.10;;;;;;6186473;23;20149;-85
2022/05/30 08:14:15;;;;;;;7.38;2.47;;;18.80;54.10;;;;;;6191950;23;20484;-87
2022/05/30 08:16:41;;;;;;;6.68;2.05;;;18.90;54.30;;;;;;6216202;23;20576;-86
2022/05/30 08:19:07;;;;;;;7.72;2.60;;;18.90;54.30;;;;;;6191445;23;20150;-88
2022/05/30 08:21:36;;;;;;;5.35;2.15;;;18.90;54.20;;;;;;6215965;23;20585;-86
2022/05/30 08:24:07;;;;;;;3.88;1.85;;;18.90;54.20;;;;;;6193810;23;20233;-86
2022/05/30 08:26:46;;;;;;;4.90;1.98;;;18.90;54.20;;;;;;6132418;23;20155;-85
2022/05/30 08:29:20;;;;;;;2.58;2.00;;;18.90;54.20;;;;;;6158326;23;20497;-86
2022/05/30 08:31:48;;;;;;;3.38;2.08;;;19.00;54.30;;;;;;6131689;23;20197;-86
2022/05/30 08:34:15;;;;;;;5.55;1.92;;;18.90;54.40;;;;;;6130696;23;20155;-86
2022/05/30 08:36:43;;;;;;;4.68;2.10;;;19.00;54.40;;;;;;6132439;23;20148;-85
2022/05/30 08:41:54;;;;;;;2.65;1.90;;;18.90;54.20;;;;;;6160780;23;20231;-85
2022/05/30 08:44:23;;;;;;;3.45;2.13;;;19.00;54.40;;;;;;6137040;23;20546;-86
2022/05/30 08:47:30;;;;;;;3.55;1.92;;;19.00;54.50;;;;;;6162476;23;20218;-88
2022/05/30 08:50:02;;;;;;;3.95;2.20;;;19.00;54.50;;;;;;6164835;23;20207;-87
2022/05/30 08:52:54;;;;;;;2.55;2.00;;;19.00;54.40;;;;;;6165050;23;20160;-87
2022/05/30 08:55:46;;;;;;;3.38;1.95;;;19.00;54.30;;;;;;6138849;23;20666;-85
2022/05/30 08:58:45;;;;;;;3.00;1.92;;;19.00;54.20;;;;;;6127180;23;20559;-84
2022/05/30 09:01:32;;;;;;;2.10;1.83;;;19.00;54.30;;;;;;6109934;23;20152;-85
2022/05/30 09:11:43;;;;;;;2.38;2.00;;;19.00;54.20;;;;;;5932678;24;20161;-86
2022/05/30 09:14:17;;;;;;;2.75;2.10;;;19.00;54.10;;;;;;5911268;24;20200;-84
2022/05/30 09:16:49;;;;;;;3.20;2.00;;;19.10;54.10;;;;;;5937490;24;20178;-86
2022/05/30 09:19:15;;;;;;;4.32;1.90;;;19.10;54.30;;;;;;5881255;24;20221;-86
2022/05/30 09:21:40;;;;;;;3.53;1.90;;;19.00;54.00;;;;;;5902897;24;20222;-85
2022/05/30 09:24:06;;;;;;;3.33;1.75;;;19.10;54.20;;;;;;5943674;24;20192;-87
2022/05/30 09:26:38;;;;;;;3.22;2.08;;;19.00;53.90;;;;;;5955389;24;20164;-88
2022/05/30 09:29:28;;;;;;;4.82;2.08;;;19.00;54.10;;;;;;5956699;24;20157;-86
2022/05/30 09:32:18;;;;;;;3.22;1.88;;;19.10;54.10;;;;;;5888179;24;20157;-85
2022/05/30 09:34:46;;;;;;;2.35;1.80;;;19.10;54.10;;;;;;5927171;24;20156;-86
2022/05/30 09:37:30;;;;;;;3.13;1.88;;;19.10;53.90;;;;;;5940980;24;20205;-86
2022/05/30 09:39:57;;;;;;;3.63;2.20;;;19.10;54.00;;;;;;5938307;24;20195;-87
2022/05/30 09:42:33;;;;;;;2.28;1.70;;;19.10;54.00;;;;;;5891043;24;20148;-87
2022/05/30 09:45:26;;;;;;;2.50;1.90;;;19.10;54.10;;;;;;5947963;23;20164;-86
2022/05/30 09:48:12;;;;;;;2.67;1.67;;;19.10;54.00;;;;;;6113015;23;20155;-86
2022/05/30 09:50:42;;;;;;;2.00;1.80;;;19.10;54.00;;;;;;6057059;23;20231;-89
2022/05/30 09:53:08;;;;;;;3.90;2.03;;;19.10;54.00;;;;;;6103351;23;20215;-87
2022/05/30 09:55:36;;;;;;;3.25;1.70;;;19.10;54.10;;;;;;6102944;23;20572;-88
2022/05/30 09:58:04;;;;;;;4.07;1.88;;;19.20;54.20;;;;;;6077856;23;20156;-85
2022/05/30 10:00:56;;;;;;;3.42;1.77;;;19.20;54.00;;;;;;6079390;23;20152;-87
2022/05/30 10:03:40;;;;;;;2.72;1.83;;;19.20;53.90;;;;;;6160370;23;20177;-88
2022/05/30 10:06:19;;;;;;;2.28;1.90;;;19.10;53.70;;;;;;6170394;23;20126;-87
2022/05/30 10:08:46;;;;;;;2.50;2.08;;;19.20;53.80;;;;;;6145399;23;20166;-88
2022/05/30 10:11:32;;;;;;;1.70;1.60;;;19.20;53.80;;;;;;6146814;23;20143;-87
2022/05/30 10:13:58;;;;;;;2.67;1.55;;;19.20;53.50;;;;;;6168380;23;20131;-87
2022/05/30 10:16:32;;;;;;;1.70;1.60;;;19.20;53.50;;;;;;6166723;23;20134;-87
2022/05/30 10:19:03;;;;;;;2.40;2.00;;;19.20;53.50;;;;;;6143334;23;20146;-88
2022/05/30 10:31:08;;;;;;;11.02;2.85;;;19.20;53.50;;;;;;6199141;23;20193;-87
2022/05/30 10:34:08;;;;;;;8.88;2.30;;;19.20;53.40;;;;;;6191445;23;20146;-88
2022/05/30 10:36:53;;;;;;;5.68;2.05;;;19.20;53.40;;;;;;6191240;23;20162;-87
2022/05/30 10:39:58;;;;;;;15.43;2.30;;;19.20;53.40;;;;;;6191431;23;20178;-89
2022/05/30 10:42:28;;;;;;;21.38;3.67;;;19.20;53.40;;;;;;6165107;23;20181;-90
2022/05/30 10:44:58;;;;;;;45.13;3.72;;;19.20;53.30;;;;;;6141151;23;20138;-86
2022/05/30 10:47:45;;;;;;;23.85;3.65;;;19.20;54.10;;;;;;6140492;23;20134;-86
2022/05/30 10:50:21;;;;;;;19.35;2.95;;;19.20;53.20;;;;;;6190554;23;20130;-88
2022/05/30 10:52:53;;;;;;;25.00;3.00;;;19.20;53.10;;;;;;6165284;23;20138;-87
2022/05/30 10:55:22;;;;;;;16.17;2.65;;;19.10;52.90;;;;;;6166288;23;20640;-86
2022/05/30 10:57:55;;;;;;;11.73;2.40;;;19.10;53.40;;;;;;6191390;23;20130;-86
2022/05/30 11:00:31;;;;;;;13.15;2.50;;;19.10;53.20;;;;;;6106303;23;20160;-86
2022/05/30 11:03:18;;;;;;;15.15;2.88;;;19.20;53.20;;;;;;6100590;23;20274;-86
2022/05/30 11:06:09;;;;;;;13.82;2.60;;;19.10;53.00;;;;;;6053940;23;20208;-87
2022/05/30 11:09:10;;;;;;;18.05;2.40;;;19.10;53.30;;;;;;6011767;23;20244;-88
2022/05/30 11:11:58;;;;;;;14.43;2.53;;;19.00;53.00;;;;;;6010478;23;20164;-86
2022/05/30 11:14:41;;;;;;;12.38;2.15;;;19.10;52.90;;;;;;5991846;23;20238;-86
2022/05/30 11:17:18;;;;;;;4.10;2.22;;;19.10;52.80;;;;;;5991051;23;20182;-87
2022/05/30 11:20:00;;;;;;;5.43;2.15;;;19.10;52.80;;;;;;5962029;24;20202;-86
2022/05/30 11:22:33;;;;;;;7.65;2.20;;;19.10;52.90;;;;;;5982388;24;20666;-87
2022/05/30 11:25:05;;;;;;;8.98;2.50;;;19.10;53.00;;;;;;5985124;24;20155;-86
2022/05/30 11:27:41;;;;;;;4.60;2.40;;;19.10;53.10;;;;;;5983408;24;20152;-87
2022/05/30 11:30:23;;;;;;;9.05;1.90;;;19.00;53.00;;;;;;5983410;24;20157;-88
2022/05/30 11:33:32;;;;;;;6.95;2.13;;;19.10;52.80;;;;;;5991153;23;20147;-87
2022/05/30 11:36:18;;;;;;;7.80;2.08;;;19.00;52.80;;;;;;6068330;23;20192;-86
2022/05/30 11:38:59;;;;;;;10.95;2.28;;;19.10;52.90;;;;;;6092708;23;20194;-88
2022/05/30 11:41:56;;;;;;;7.82;2.28;;;19.10;52.50;;;;;;6078911;23;20164;-88
2022/05/30 11:44:35;;;;;;;7.90;2.28;;;19.10;52.80;;;;;;6104407;23;20218;-88
2022/05/30 11:47:24;;;;;;;5.80;1.80;;;19.10;52.60;;;;;;6080002;23;20163;-89
2022/05/30 11:50:08;;;;;;;9.15;2.33;;;19.10;52.70;;;;;;6082007;23;20234;-87
2022/05/30 11:53:12;;;;;;;8.68;1.95;;;19.10;52.70;;;;;;6100598;23;20507;-88
2022/05/30 11:55:51;;;;;;;7.43;2.03;;;19.10;52.60;;;;;;6085456;23;20180;-88
2022/05/30 11:58:18;;;;;;;12.80;3.22;;;19.10;52.70;;;;;;6075975;23;20160;-88
2022/05/30 12:00:47;;;;;;;10.80;2.20;;;19.10;52.70;;;;;;6098975;23;20220;-85
2022/05/30 12:03:48;;;;;;;7.35;2.17;;;19.10;52.60;;;;;;6099416;23;20172;-86
2022/05/30 12:06:32;;;;;;;3.80;1.92;;;19.10;52.90;;;;;;6100231;23;20394;-87
2022/05/30 12:09:17;;;;;;;7.13;1.80;;;19.00;52.80;;;;;;6099480;23;20657;-86
2022/05/30 12:12:08;;;;;;;6.88;2.45;;;19.10;53.00;;;;;;6104412;23;20179;-88
2022/05/30 12:14:49;;;;;;;9.10;2.08;;;19.00;52.90;;;;;;6103454;23;20176;-88
2022/05/30 12:24:21;;;;;;;14.50;2.35;;;19.00;53.20;;;;;;6106253;23;20214;-88
2022/05/30 12:26:57;;;;;;;12.85;2.30;;;19.00;53.50;;;;;;6108039;23;20152;-88
2022/05/30 12:29:46;;;;;;;10.35;2.35;;;18.90;53.50;;;;;;6155642;23;20145;-88
2022/05/30 12:32:32;;;;;;;9.25;2.40;;;19.00;53.50;;;;;;6168055;23;20146;-87
2022/05/30 12:35:11;;;;;;;8.23;1.92;;;18.90;54.10;;;;;;6170011;23;20138;-87
2022/05/30 12:37:45;;;;;;;7.10;2.08;;;19.00;53.10;;;;;;6173587;23;20577;-88
2022/05/30 12:40:33;;;;;;;8.20;2.20;;;19.00;53.10;;;;;;6197192;23;20663;-86
2022/05/30 12:43:23;;;;;;;4.95;2.45;;;19.10;53.30;;;;;;6197845;23;20166;-87
2022/05/30 12:46:11;;;;;;;7.60;1.70;;;19.10;53.40;;;;;;6182096;23;20189;-87
2022/05/30 12:49:00;;;;;;;6.57;1.85;;;19.10;53.20;;;;;;6178424;23;20150;-87
2022/05/30 12:51:41;;;;;;;6.25;1.80;;;19.00;53.20;;;;;;6207999;23;20145;-87
2022/05/30 12:54:20;;;;;;;5.70;2.05;;;19.10;53.20;;;;;;6230399;23;20161;-87
2022/05/30 12:57:07;;;;;;;2.78;1.80;;;19.10;53.30;;;;;;6205279;23;20584;-86
2022/05/30 12:59:54;;;;;;;5.95;1.80;;;19.10;53.10;;;;;;6208208;23;20153;-87
2022/05/30 13:02:56;;;;;;;7.88;1.70;;;19.10;53.00;;;;;;6209065;23;20157;-88
2022/05/30 13:05:39;;;;;;;5.00;1.80;;;19.00;52.80;;;;;;6204895;23;20179;-86
2022/05/30 13:08:38;;;;;;;5.43;1.70;;;19.10;52.80;;;;;;6231404;23;20217;-87
2022/05/30 13:11:05;;;;;;;5.03;1.75;;;19.00;52.70;;;;;;6252268;23;20137;-88
2022/05/30 13:13:31;;;;;;;4.45;2.00;;;19.10;52.70;;;;;;6176095;23;20156;-89
2022/05/30 13:16:09;;;;;;;5.05;1.73;;;19.10;52.60;;;;;;6204060;23;20144;-89
2022/05/30 13:18:35;;;;;;;5.43;1.90;;;19.10;52.40;;;;;;6141321;23;20151;-88
2022/05/30 13:21:04;;;;;;;4.85;1.70;;;19.10;52.50;;;;;;6162454;23;20613;-88
2022/05/30 13:23:34;;;;;;;6.22;1.90;;;19.10;52.60;;;;;;6137776;23;20183;-87
2022/05/30 13:26:02;;;;;;;3.95;2.00;;;19.10;52.60;;;;;;6133808;23;20587;-89
2022/05/30 13:28:33;;;;;;;4.13;1.60;;;19.00;52.70;;;;;;6133935;23;20148;-88
2022/05/30 13:31:02;;;;;;;6.63;2.20;;;19.00;52.60;;;;;;6160621;23;20602;-88
2022/05/30 13:33:32;;;;;;;5.93;2.40;;;19.10;52.70;;;;;;6108562;23;20590;-88
2022/05/30 13:36:00;;;;;;;5.80;1.90;;;19.10;52.70;;;;;;6133007;23;20194;-88
2022/05/30 13:38:37;;;;;;;5.82;2.40;;;19.10;52.90;;;;;;6132953;23;20294;-89
2022/05/30 13:41:38;;;;;;;11.48;2.45;;;19.00;52.90;;;;;;6132163;23;20142;-88
2022/05/30 13:44:08;;;;;;;4.30;2.22;;;19.00;52.80;;;;;;6211591;23;20190;-87
2022/05/30 13:46:42;;;;;;;6.93;1.98;;;19.00;52.90;;;;;;6201306;23;20129;-89